Frederick, IL (62639)

7:55 AM CDT on August 30, 2015 (GMT -0500)
APRSWXNET | | Change Station
CLOSE
Current Station
Personal Weather Station
Location: Bader, IL
Elevation: 649 ft
Nearby Weather Stations

Elev 649 ft 40.14 °N, 90.42 °W | Updated 23 minutes ago

Fog
Fog
69 °F
Feels Like 69 °F
N
0
Wind Variable Wind from NE
Gusts 0.0 mph

Today
High -- | Low -- °F
--% Chance of Precip.
Yesterday
High -- | Low -- °F
Precip. -- in
6:27 AM 7:36 PM
Full, 99% visible
Pressure 30.05 in
Visibility 1.8 miles
Clouds Scattered Clouds 100 ft
Mostly Cloudy 4200 ft
Mostly Cloudy 6000 ft
Dew Point 69 °F
Humidity 99%
Rainfall in
Snow Depth Not available.
UV 0 out of 12
Pollen 10.30 out of 12
Air Quality Not available.
Flu Activity Not available.
METAR KIJX 301235Z AUTO 00000KT 1 3/4SM BR SCT001 BKN042 BKN060 20/20 A3005 RMK AO2 T02020195
Pressure 30.05 in
Visibility 1.8 miles
Clouds Scattered Clouds 100 ft
Mostly Cloudy 4200 ft
Mostly Cloudy 6000 ft
Dew Point 69 °F
Humidity 99%
Rainfall in
Snow Depth Not available.
UV 0 out of 12
Pollen 10.30 out of 12
Air Quality Not available.
Flu Activity Not available.
METAR KIJX 301235Z AUTO 00000KT 1 3/4SM BR SCT001 BKN042 BKN060 20/20 A3005 RMK AO2 T02020195

10-Day Weather Forecast

×

Almanac

Astronomy

Aug. 30, 2015 Rise Set
Actual Time
Civil Twilight
Nautical Twilight
Astronomical Twilight
Moon
Length of Visible Light
Length of Day
Tomorrow will be .
, % of the Moon is Illuminated

Today's Extremes

State Highs State Lows

Community

WunderPhotos

Upload Photos

1,850,940 photos uploaded!

WunderBlogs® & News

Nearby

Air Quality

  Air Quality AQ Index Pollutant
Not available.

Snow Depth

Station Depth Elevation

Earthquake Activity

City Distance Mag. Time & Date
Minimum magnitude displayed is 2.5.

Coastal Water Temperatures

Place Temperature

Stations

Nearby Weather Stations

Station Location Temp. Windchill Dew Point Humidity Wind Precip. Elev Updated Type